Time;durP1;ratioP1;P1;durP2;ratioP2;P2;SDS_P1;SDS_P2;PMS_P1;PMS_P2;Temp;Humidity;BMP_temperature;BMP_pressure;BME280_temperature;BME280_humidity;BME280_pressure;Samples;Min_cycle;Max_cycle;Signal;HPM_P1;HPM_P2
2023/06/12 00:00:45;;;;;;;5.18;3.50;;;;;;;24.26;62.01;98313.88;2069988;28;20554;-50
2023/06/12 00:01:46;;;;;;;4.38;3.22;;;;;;;24.25;61.47;98304.94;2073523;28;20404;-55
2023/06/12 00:02:48;;;;;;;4.47;2.42;;;;;;;24.27;61.46;98305.53;2070394;28;20057;-56
2023/06/12 00:03:49;;;;;;;3.80;3.00;;;;;;;24.25;61.96;98307.66;2070291;28;20403;-52
2023/06/12 00:04:54;;;;;;;3.50;3.08;;;;;;;24.26;61.74;98306.56;2071071;28;20053;-53
2023/06/12 00:05:58;;;;;;;4.68;2.90;;;;;;;24.25;61.81;98302.22;2071857;28;20483;-49
2023/06/12 00:07:01;;;;;;;2.90;2.70;;;;;;;24.24;61.75;98303.31;2072118;28;20077;-49
2023/06/12 00:08:02;;;;;;;4.07;3.25;;;;;;;24.24;61.84;98306.03;2069354;28;20049;-54
2023/06/12 00:09:05;;;;;;;3.13;2.83;;;;;;;24.25;62.02;98299.53;2070795;28;20447;-54
2023/06/12 00:10:06;;;;;;;4.47;3.42;;;;;;;24.26;61.71;98305.75;2071407;28;20366;-56
2023/06/12 00:11:12;;;;;;;4.47;3.22;;;;;;;24.25;61.71;98304.94;2070426;28;20042;-53
2023/06/12 00:12:13;;;;;;;3.72;3.35;;;;;;;24.25;62.04;98304.94;2069635;28;20056;-54
2023/06/12 00:13:15;;;;;;;5.10;3.85;;;;;;;24.25;62.03;98310.34;2072344;28;20531;-53
2023/06/12 00:14:16;;;;;;;4.82;2.85;;;;;;;24.25;61.63;98299.53;2070431;28;20057;-51
2023/06/12 00:15:19;;;;;;;3.13;2.83;;;;;;;24.27;61.79;98302.00;2070643;28;20060;-53
2023/06/12 00:16:21;;;;;;;3.80;3.40;;;;;;;24.26;61.78;98309.28;2070304;28;20056;-52
2023/06/12 00:17:23;;;;;;;4.72;2.63;;;;;;;24.27;61.73;98302.81;2068593;28;20062;-55
2023/06/12 00:18:24;;;;;;;5.55;3.38;;;;;;;24.26;61.66;98300.34;2069762;28;20054;-53
2023/06/12 00:19:28;;;;;;;3.08;2.78;;;;;;;24.25;61.94;98304.13;2068912;28;20058;-50
2023/06/12 00:20:29;;;;;;;3.60;2.92;;;;;;;24.27;61.86;98291.16;2071603;28;20140;-55
2023/06/12 00:21:31;;;;;;;4.43;3.50;;;;;;;24.26;61.96;98303.03;2071288;28;20080;-49
2023/06/12 00:22:32;;;;;;;4.88;3.30;;;;;;;24.27;61.79;98302.00;2070095;28;20391;-51
2023/06/12 00:23:34;;;;;;;6.55;3.53;;;;;;;24.25;61.72;98304.94;2072229;28;20045;-50
2023/06/12 00:24:34;;;;;;;4.03;2.80;;;;;;;24.28;61.85;98303.63;2071324;28;20050;-56
2023/06/12 00:25:37;;;;;;;3.75;3.33;;;;;;;24.26;61.77;98295.72;2068469;28;20045;-55
2023/06/12 00:26:37;;;;;;;5.95;3.10;;;;;;;24.26;61.48;98301.16;2070619;28;20492;-51
2023/06/12 00:27:39;;;;;;;4.70;2.72;;;;;;;24.24;61.77;98297.88;2073336;28;20056;-54
2023/06/12 00:28:40;;;;;;;3.17;2.70;;;;;;;24.27;61.78;98304.69;2070375;28;20046;-55
2023/06/12 00:29:42;;;;;;;4.85;3.88;;;;;;;24.25;61.51;98299.53;2071434;28;20050;-51
2023/06/12 00:30:44;;;;;;;3.22;2.92;;;;;;;24.27;61.73;98302.81;2071120;28;20042;-54
2023/06/12 00:31:46;;;;;;;4.15;3.58;;;;;;;24.27;61.46;98305.53;2069402;28;20137;-57
2023/06/12 00:32:47;;;;;;;3.30;2.85;;;;;;;24.26;61.82;98311.19;2067258;28;20863;-55
2023/06/12 00:33:48;;;;;;;4.13;2.85;;;;;;;24.26;62.26;98312.00;2070154;28;20045;-53
2023/06/12 00:34:49;;;;;;;4.60;2.55;;;;;;;24.24;61.74;98316.84;2069044;28;20136;-50
2023/06/12 00:35:51;;;;;;;4.78;2.63;;;;;;;24.25;62.04;98307.66;2070988;28;20068;-52
2023/06/12 00:36:52;;;;;;;2.83;2.60;;;;;;;24.24;62.21;98303.31;2066710;28;20054;-50
2023/06/12 00:37:55;;;;;;;4.10;3.30;;;;;;;24.26;61.80;98311.19;2071018;28;20121;-55
2023/06/12 00:38:55;;;;;;;3.63;2.72;;;;;;;24.25;62.06;98309.53;2070187;28;20057;-50
2023/06/12 00:39:57;;;;;;;6.00;3.22;;;;;;;24.25;61.74;98313.06;2071159;28;20056;-51
2023/06/12 00:40:58;;;;;;;3.88;2.60;;;;;;;24.24;61.77;98316.84;2068832;28;20072;-54
2023/06/12 00:42:00;;;;;;;2.97;2.38;;;;;;;24.26;61.93;98317.41;2068614;28;20045;-50
2023/06/12 00:43:00;;;;;;;3.75;3.00;;;;;;;24.25;61.96;98315.78;2071053;28;20049;-56
2023/06/12 00:44:02;;;;;;;3.42;2.90;;;;;;;24.25;62.13;98315.78;2072105;28;20370;-51
2023/06/12 00:45:05;;;;;;;2.95;2.70;;;;;;;24.25;62.06;98315.78;2070016;28;20056;-53
2023/06/12 00:46:08;;;;;;;3.45;3.15;;;;;;;24.26;61.95;98313.88;2068414;28;20077;-52
2023/06/12 00:47:10;;;;;;;3.13;2.83;;;;;;;24.26;61.85;98309.28;2071382;28;20049;-56
2023/06/12 00:48:12;;;;;;;2.83;2.53;;;;;;;24.25;61.84;98307.66;2068810;28;20080;-56
2023/06/12 00:49:13;;;;;;;3.45;2.60;;;;;;;24.24;62.01;98310.63;2068925;28;20065;-54
2023/06/12 00:50:16;;;;;;;3.25;2.70;;;;;;;24.24;61.82;98307.91;2075149;28;20084;-54
2023/06/12 00:51:17;;;;;;;4.03;2.88;;;;;;;24.25;61.66;98310.34;2073182;28;20049;-52
2023/06/12 00:52:21;;;;;;;2.90;2.70;;;;;;;24.26;62.14;98306.56;2070540;28;20405;-50
2023/06/12 00:53:23;;;;;;;2.60;2.40;;;;;;;24.25;61.84;98310.34;2067154;28;21308;-52
2023/06/12 00:54:25;;;;;;;3.38;2.63;;;;;;;24.23;61.97;98301.66;2069484;28;20491;-50
2023/06/12 00:55:30;;;;;;;4.15;3.05;;;;;;;24.26;61.56;98305.75;2069987;28;20058;-51
2023/06/12 00:56:31;;;;;;;4.53;2.45;;;;;;;24.24;62.33;98303.31;2068572;28;20073;-56
2023/06/12 00:57:33;;;;;;;4.00;2.90;;;;;;;24.25;61.75;98309.53;2072547;28;20298;-51
2023/06/12 00:58:34;;;;;;;4.10;3.20;;;;;;;24.24;61.75;98303.31;2068868;28;20053;-49
2023/06/12 00:59:36;;;;;;;3.20;2.75;;;;;;;24.24;61.93;98303.31;2069729;28;20884;-55
2023/06/12 01:00:38;;;;;;;3.90;2.88;;;;;;;24.24;62.09;98300.59;2068774;28;20107;-55
2023/06/12 01:01:42;;;;;;;5.05;3.08;;;;;;;24.25;62.06;98299.53;2070065;28;20050;-49
2023/06/12 01:02:45;;;;;;;3.53;3.10;;;;;;;24.25;61.96;98293.28;2071510;28;20060;-53
2023/06/12 01:03:48;;;;;;;3.10;2.75;;;;;;;24.25;62.00;98301.41;2072198;28;21101;-56
2023/06/12 01:04:49;;;;;;;3.92;2.60;;;;;;;24.24;61.85;98300.59;2070036;28;20568;-50
2023/06/12 01:05:52;;;;;;;5.22;2.90;;;;;;;24.25;61.75;98301.41;2073654;28;20053;-52
2023/06/12 01:06:59;;;;;;;2.97;2.28;;;;;;;24.25;61.90;98299.53;2070710;28;20456;-54
2023/06/12 01:08:19;;;;;;;3.50;3.13;;;;;;;24.23;61.75;98298.94;2070478;28;20050;-52
2023/06/12 01:09:32;;;;;;;4.38;2.95;;;;;;;24.21;62.26;98305.66;2069628;28;20046;-50
2023/06/12 01:10:39;;;;;;;2.80;2.50;;;;;;;24.21;62.10;98305.66;2066662;28;20778;-55
2023/06/12 01:11:41;;;;;;;3.28;2.80;;;;;;;24.21;62.33;98301.09;2070717;28;20054;-55
2023/06/12 01:12:45;;;;;;;3.58;3.13;;;;;;;24.23;61.92;98301.66;2070335;28;20180;-53
2023/06/12 01:13:46;;;;;;;3.45;3.03;;;;;;;24.22;61.86;98301.91;2065594;28;20052;-56
2023/06/12 01:14:47;;;;;;;3.15;2.85;;;;;;;24.24;62.19;98302.50;2067193;28;20097;-51
2023/06/12 01:15:49;;;;;;;3.85;3.25;;;;;;;24.24;61.91;98299.78;2068307;28;20088;-56
2023/06/12 01:16:52;;;;;;;3.15;2.80;;;;;;;24.23;61.84;98298.13;2070135;28;20496;-53
2023/06/12 01:17:53;;;;;;;2.30;2.10;;;;;;;24.22;62.15;98300.03;2060861;28;20045;-52
2023/06/12 01:18:55;;;;;;;3.35;2.35;;;;;;;24.25;61.90;98299.53;2069904;28;20487;-53
2023/06/12 01:19:56;;;;;;;3.10;2.80;;;;;;;24.24;61.93;98289.75;2069046;28;20530;-52
2023/06/12 01:21:01;;;;;;;4.05;3.08;;;;;;;24.24;61.83;98303.31;2069067;28;20137;-54
2023/06/12 01:22:10;;;;;;;3.72;2.40;;;;;;;24.23;61.93;98290.00;2070173;28;20069;-49
2023/06/12 01:23:20;;;;;;;5.43;2.88;;;;;;;24.22;62.09;98294.59;2072510;28;20495;-50
2023/06/12 01:24:34;;;;;;;3.83;2.92;;;;;;;24.18;62.19;98296.19;2072787;28;20115;-56
2023/06/12 01:26:01;;;;;;;3.10;2.80;;;;;;;24.17;62.52;98294.53;2071536;28;20063;-54
2023/06/12 01:27:20;;;;;;;4.80;2.60;;;;;;;24.14;62.50;98289.59;2066314;28;20053;-50
2023/06/12 01:28:46;;;;;;;3.00;2.75;;;;;;;24.15;62.04;98293.94;2068604;28;20054;-57
2023/06/12 01:30:07;;;;;;;3.20;2.70;;;;;;;24.15;62.37;98293.13;2070005;28;20200;-53
2023/06/12 01:31:18;;;;;;;2.92;2.50;;;;;;;24.15;62.18;98299.34;2069854;28;20038;-54
2023/06/12 01:32:20;;;;;;;4.47;3.03;;;;;;;24.17;62.25;98291.81;2067754;28;20132;-55
2023/06/12 01:33:30;;;;;;;3.88;2.85;;;;;;;24.21;62.21;98287.56;2074037;28;20049;-54
2023/06/12 01:34:37;;;;;;;2.90;2.38;;;;;;;24.19;61.91;98292.38;2070266;28;20046;-57
2023/06/12 01:35:43;;;;;;;3.45;2.47;;;;;;;24.19;62.20;98289.69;2070847;28;20449;-53
2023/06/12 01:36:49;;;;;;;4.22;3.40;;;;;;;24.19;62.24;98289.69;2070954;28;20056;-50
2023/06/12 01:37:56;;;;;;;3.03;2.33;;;;;;;24.17;62.49;98285.56;2068095;28;20076;-52
2023/06/12 01:38:59;;;;;;;5.20;3.50;;;;;;;24.20;61.92;98280.47;2069754;28;20401;-51
2023/06/12 01:40:08;;;;;;;3.47;3.17;;;;;;;24.21;61.93;98286.69;2071171;28;20128;-51
2023/06/12 01:41:09;;;;;;;3.38;2.70;;;;;;;24.19;62.15;98289.69;2071680;28;20787;-49
2023/06/12 01:42:12;;;;;;;3.08;2.88;;;;;;;24.20;62.07;98279.66;2066789;28;20096;-53
2023/06/12 01:43:13;;;;;;;3.47;2.75;;;;;;;24.21;62.10;98286.69;2069738;28;20171;-54
2023/06/12 01:44:16;;;;;;;3.05;2.75;;;;;;;24.21;61.94;98279.41;2069286;28;20054;-50
2023/06/12 01:45:17;;;;;;;3.60;2.80;;;;;;;24.21;61.87;98284.00;2066682;28;20100;-58
2023/06/12 01:46:19;;;;;;;3.20;2.67;;;;;;;24.20;62.03;98290.50;2066469;28;20120;-52
2023/06/12 01:47:22;;;;;;;2.40;2.20;;;;;;;24.21;62.06;98284.84;2067205;28;20134;-53
2023/06/12 01:48:24;;;;;;;2.95;2.53;;;;;;;24.21;61.88;98281.28;2069153;28;20064;-56
2023/06/12 01:49:25;;;;;;;3.85;2.60;;;;;;;24.21;62.15;98286.69;2068725;28;20404;-52
2023/06/12 01:50:27;;;;;;;3.97;3.17;;;;;;;24.21;62.15;98279.41;2067543;28;20133;-53
2023/06/12 01:51:28;;;;;;;3.03;2.78;;;;;;;24.22;62.08;98293.78;2071946;28;20133;-57
2023/06/12 01:52:32;;;;;;;2.80;2.38;;;;;;;24.20;62.19;98280.47;2067201;28;20337;-57
2023/06/12 01:53:33;;;;;;;4.13;3.17;;;;;;;24.21;62.38;98276.72;2072596;28;20053;-55
2023/06/12 01:54:35;;;;;;;2.50;2.30;;;;;;;24.20;61.95;98275.06;2071245;28;20183;-53
2023/06/12 01:55:37;;;;;;;3.05;2.65;;;;;;;24.21;62.30;98278.56;2068984;28;20063;-50
2023/06/12 01:56:39;;;;;;;4.13;3.15;;;;;;;24.21;62.01;98276.72;2071733;28;20148;-52
2023/06/12 01:57:40;;;;;;;3.40;2.67;;;;;;;24.22;61.93;98280.22;2071078;28;20041;-54
2023/06/12 01:58:42;;;;;;;2.75;2.55;;;;;;;24.22;61.94;98280.22;2072631;28;20052;-54
2023/06/12 01:59:43;;;;;;;3.83;2.55;;;;;;;24.19;62.35;98273.41;2070134;28;20380;-53
2023/06/12 02:00:44;;;;;;;3.92;2.63;;;;;;;24.20;61.83;98280.47;2067998;28;20052;-53
2023/06/12 02:01:45;;;;;;;3.55;2.58;;;;;;;24.20;62.22;98272.34;2069198;28;20064;-52
2023/06/12 02:02:53;;;;;;;3.17;2.70;;;;;;;24.23;62.12;98276.44;2069320;28;20659;-53
2023/06/12 02:03:56;;;;;;;3.25;2.38;;;;;;;24.19;62.17;98273.41;2069108;28;20462;-55
2023/06/12 02:04:58;;;;;;;3.03;2.80;;;;;;;24.19;62.11;98278.84;2072016;28;20060;-53
2023/06/12 02:05:58;;;;;;;2.85;2.60;;;;;;;24.20;62.30;98285.88;2071252;28;20514;-53
2023/06/12 02:07:01;;;;;;;3.67;2.80;;;;;;;24.20;62.05;98274.25;2073409;28;20042;-51
2023/06/12 02:08:02;;;;;;;2.92;2.72;;;;;;;24.19;62.19;98269.91;2071853;28;20041;-49
2023/06/12 02:09:04;;;;;;;3.17;2.80;;;;;;;24.20;62.17;98275.06;2072034;28;20042;-54
2023/06/12 02:10:07;;;;;;;5.35;2.70;;;;;;;24.20;62.26;98269.63;2070993;28;20041;-53
2023/06/12 02:11:09;;;;;;;2.75;2.55;;;;;;;24.19;62.13;98272.59;2070271;28;20651;-52
2023/06/12 02:12:11;;;;;;;2.70;2.50;;;;;;;24.21;62.19;98270.44;2073455;28;20045;-54
2023/06/12 02:13:12;;;;;;;2.85;2.55;;;;;;;24.20;61.96;98269.63;2073722;28;20049;-51
2023/06/12 02:14:13;;;;;;;3.05;2.55;;;;;;;24.19;62.05;98272.59;2070810;28;20065;-53
2023/06/12 02:15:15;;;;;;;3.05;2.72;;;;;;;24.22;61.84;98270.22;2072069;28;20061;-50
2023/06/12 02:16:20;;;;;;;3.25;2.53;;;;;;;24.21;61.94;98274.00;2071843;28;20140;-49
2023/06/12 02:17:22;;;;;;;2.78;2.30;;;;;;;24.21;61.96;98271.28;2071094;28;20049;-53
2023/06/12 02:18:25;;;;;;;2.60;2.40;;;;;;;24.21;61.79;98275.88;2071244;28;20178;-53
2023/06/12 02:19:28;;;;;;;3.25;2.83;;;;;;;24.19;61.84;98267.19;2072270;28;20045;-52
2023/06/12 02:20:29;;;;;;;3.10;2.75;;;;;;;24.20;61.88;98279.66;2072947;28;20124;-57
2023/06/12 02:21:31;;;;;;;2.53;2.20;;;;;;;24.19;61.96;98276.13;2072694;28;20096;-53
2023/06/12 02:22:32;;;;;;;3.45;2.38;;;;;;;24.20;62.13;98272.34;2072501;28;20632;-50
2023/06/12 02:23:34;;;;;;;3.80;2.45;;;;;;;24.23;62.21;98279.97;2071836;28;20447;-55
2023/06/12 02:24:35;;;;;;;3.42;2.85;;;;;;;24.22;62.09;98278.34;2072572;28;20561;-52
2023/06/12 02:25:37;;;;;;;4.05;3.10;;;;;;;24.21;62.10;98282.13;2069679;28;20123;-51
2023/06/12 02:26:38;;;;;;;2.97;2.67;;;;;;;24.20;62.08;98276.94;2071272;28;20054;-55
2023/06/12 02:27:40;;;;;;;2.75;2.50;;;;;;;24.21;62.11;98281.28;2074059;28;20053;-49
2023/06/12 02:28:41;;;;;;;3.47;2.63;;;;;;;24.21;61.82;98282.13;2070044;28;20484;-52
2023/06/12 02:29:43;;;;;;;3.22;2.92;;;;;;;24.20;62.15;98285.88;2071340;28;20103;-54
2023/06/12 02:30:44;;;;;;;2.40;2.03;;;;;;;24.21;62.39;98287.56;2073483;28;20137;-52
2023/06/12 02:31:46;;;;;;;2.80;2.55;;;;;;;24.20;62.29;98290.50;2068653;28;20060;-54
2023/06/12 02:32:49;;;;;;;2.75;2.55;;;;;;;24.20;61.80;98291.31;2072908;28;20052;-50
2023/06/12 02:33:52;;;;;;;3.03;2.70;;;;;;;24.21;62.35;98292.13;2073193;28;20364;-56
2023/06/12 02:34:54;;;;;;;3.58;2.90;;;;;;;24.20;62.17;98282.38;2076848;28;20052;-52
2023/06/12 02:35:56;;;;;;;3.03;2.72;;;;;;;24.19;62.25;98288.88;2072251;28;20050;-55
2023/06/12 02:36:58;;;;;;;2.35;2.15;;;;;;;24.19;62.15;98289.69;2069770;28;20068;-56
2023/06/12 02:37:59;;;;;;;3.15;2.70;;;;;;;24.19;62.23;98280.72;2072109;28;20594;-55
2023/06/12 02:39:01;;;;;;;2.55;2.30;;;;;;;24.21;62.29;98282.13;2072258;28;20057;-57
2023/06/12 02:40:03;;;;;;;2.40;2.20;;;;;;;24.21;61.94;98284.00;2069981;28;20046;-53
2023/06/12 02:41:10;;;;;;;2.78;2.58;;;;;;;24.21;62.10;98286.69;2070946;28;20048;-54
2023/06/12 02:42:12;;;;;;;2.83;2.63;;;;;;;24.19;61.89;98288.88;2071165;28;20042;-54
2023/06/12 02:43:13;;;;;;;3.28;2.65;;;;;;;24.17;62.39;98275.56;2069519;28;20145;-52
2023/06/12 02:44:15;;;;;;;2.85;2.58;;;;;;;24.18;62.43;98279.91;2071248;28;20053;-53
2023/06/12 02:45:16;;;;;;;4.32;2.55;;;;;;;24.18;62.07;98281.78;2069566;28;20172;-54
2023/06/12 02:46:17;;;;;;;3.55;2.70;;;;;;;24.19;62.13;98281.56;2071067;28;20053;-54
2023/06/12 02:47:18;;;;;;;2.70;2.50;;;;;;;24.18;62.37;98274.50;2067916;28;20080;-56
2023/06/12 02:48:20;;;;;;;2.47;2.28;;;;;;;24.19;62.20;98280.72;2073324;28;20042;-52
2023/06/12 02:49:25;;;;;;;2.47;2.10;;;;;;;24.20;62.19;98279.66;2074163;28;20136;-53
2023/06/12 02:50:27;;;;;;;4.20;3.03;;;;;;;24.19;62.43;98281.56;2071864;28;20114;-49
2023/06/12 02:51:27;;;;;;;4.28;2.70;;;;;;;24.19;62.40;98272.59;2072860;28;20192;-52
2023/06/12 02:52:30;;;;;;;2.72;2.50;;;;;;;24.18;62.76;98276.38;2069900;28;20746;-56
2023/06/12 02:53:31;;;;;;;2.88;2.40;;;;;;;24.19;61.95;98278.03;2072139;28;20156;-56
2023/06/12 02:54:33;;;;;;;2.42;2.05;;;;;;;24.18;62.21;98271.78;2069658;28;20051;-55
2023/06/12 02:55:39;;;;;;;3.50;3.10;;;;;;;24.18;62.50;98279.91;2068358;28;20498;-52
2023/06/12 02:56:44;;;;;;;2.97;2.40;;;;;;;24.17;62.28;98280.97;2071216;28;20046;-49
2023/06/12 02:57:46;;;;;;;2.40;1.98;;;;;;;24.17;62.57;98277.44;2072499;28;20053;-51
2023/06/12 02:58:47;;;;;;;2.70;2.17;;;;;;;24.18;61.89;98282.63;2074299;28;20088;-53
2023/06/12 02:59:49;;;;;;;2.60;2.40;;;;;;;24.18;62.25;98270.94;2071691;28;20578;-51
2023/06/12 03:00:50;;;;;;;2.85;2.35;;;;;;;24.18;62.40;98274.50;2073905;28;20064;-51
2023/06/12 03:01:52;;;;;;;3.28;2.35;;;;;;;24.18;61.97;98274.50;2072931;28;20497;-50
2023/06/12 03:02:55;;;;;;;2.97;2.28;;;;;;;24.17;62.14;98275.56;2065046;28;20063;-53
2023/06/12 03:03:56;;;;;;;2.38;2.17;;;;;;;24.17;62.30;98280.16;2071164;28;20102;-53
2023/06/12 03:05:00;;;;;;;2.72;2.40;;;;;;;24.18;62.33;98271.78;2070844;28;20100;-53
2023/06/12 03:06:00;;;;;;;3.55;2.70;;;;;;;24.17;62.52;98278.25;2072356;28;20108;-52
2023/06/12 03:07:05;;;;;;;2.55;2.15;;;;;;;24.15;62.30;98274.97;2073178;28;20049;-49
2023/06/12 03:08:06;;;;;;;2.78;2.47;;;;;;;24.16;62.52;98276.63;2069199;28;20881;-52
2023/06/12 03:09:08;;;;;;;2.45;2.25;;;;;;;24.15;62.12;98269.56;2071242;28;20553;-51
2023/06/12 03:10:10;;;;;;;3.10;2.50;;;;;;;24.17;62.14;98272.84;2074206;28;20058;-52
2023/06/12 03:11:11;;;;;;;2.47;2.17;;;;;;;24.18;62.27;98276.38;2074235;28;20049;-49
2023/06/12 03:12:12;;;;;;;4.40;2.30;;;;;;;24.16;62.45;98273.09;2070105;28;20738;-51
2023/06/12 03:13:14;;;;;;;2.85;2.45;;;;;;;24.17;61.97;98270.13;2071384;28;20057;-50
2023/06/12 03:14:16;;;;;;;2.80;2.47;;;;;;;24.18;62.53;98277.22;2069320;28;20153;-52
2023/06/12 03:15:18;;;;;;;3.38;2.97;;;;;;;24.17;62.41;98275.56;2071184;28;20333;-49
2023/06/12 03:16:20;;;;;;;3.55;2.28;;;;;;;24.17;62.31;98280.97;2071488;28;20096;-51
2023/06/12 03:17:23;;;;;;;2.65;2.25;;;;;;;24.16;62.52;98283.94;2072590;28;20049;-52
2023/06/12 03:18:23;;;;;;;2.70;2.45;;;;;;;24.18;62.49;98282.63;2071699;28;20276;-51
2023/06/12 03:19:25;;;;;;;3.00;2.70;;;;;;;24.17;62.34;98280.16;2072427;28;20148;-53
2023/06/12 03:20:32;;;;;;;3.88;2.20;;;;;;;24.16;62.38;98273.91;2071410;28;20041;-54
2023/06/12 03:21:35;;;;;;;2.75;2.55;;;;;;;24.15;62.57;98288.53;2070607;28;20057;-54
2023/06/12 03:22:36;;;;;;;2.72;2.53;;;;;;;24.15;62.49;98287.69;2068513;28;20103;-52
2023/06/12 03:23:38;;;;;;;2.45;2.20;;;;;;;24.16;62.28;98283.94;2073600;28;20442;-50
2023/06/12 03:24:38;;;;;;;4.07;2.60;;;;;;;24.16;62.63;98278.53;2073772;28;20049;-52
2023/06/12 03:25:40;;;;;;;2.90;2.63;;;;;;;24.15;62.36;98282.28;2072030;28;20116;-50
2023/06/12 03:26:41;;;;;;;1.95;1.85;;;;;;;24.16;62.19;98290.19;2069899;28;20519;-53
2023/06/12 03:27:43;;;;;;;2.60;1.85;;;;;;;24.17;62.42;98291.81;2072203;28;20296;-50
2023/06/12 03:28:45;;;;;;;2.42;2.22;;;;;;;24.17;62.15;98286.38;2070620;28;20080;-49
2023/06/12 03:29:47;;;;;;;2.63;2.20;;;;;;;24.16;62.63;98290.19;2070578;28;20104;-50
2023/06/12 03:30:48;;;;;;;2.63;2.13;;;;;;;24.16;62.03;98290.19;2072408;28;20136;-48
2023/06/12 03:31:49;;;;;;;2.92;2.60;;;;;;;24.15;62.24;98288.53;2069705;28;20053;-50
2023/06/12 03:32:52;;;;;;;2.97;2.30;;;;;;;24.14;62.41;98276.06;2072808;28;20519;-49
2023/06/12 03:33:55;;;;;;;4.25;2.10;;;;;;;24.16;62.49;98284.75;2071217;28;20045;-54
2023/06/12 03:34:56;;;;;;;3.70;2.92;;;;;;;24.15;62.31;98282.28;2072736;28;20057;-54
2023/06/12 03:35:59;;;;;;;3.13;2.33;;;;;;;24.15;62.20;98276.88;2071935;28;20046;-50
2023/06/12 03:37:01;;;;;;;2.63;2.40;;;;;;;24.15;62.41;98277.69;2073664;28;20056;-49
2023/06/12 03:38:01;;;;;;;2.40;2.20;;;;;;;24.13;62.17;98285.25;2070633;28;20052;-50
2023/06/12 03:39:04;;;;;;;2.80;2.50;;;;;;;24.15;62.54;98282.28;2073887;28;20642;-50
2023/06/12 03:40:06;;;;;;;2.60;2.40;;;;;;;24.16;62.58;98289.38;2072773;28;20092;-52
2023/06/12 03:41:08;;;;;;;2.40;2.20;;;;;;;24.15;62.60;98285.81;2072480;28;20432;-52
2023/06/12 03:42:10;;;;;;;2.35;2.15;;;;;;;24.15;62.10;98288.53;2070838;28;20724;-49
2023/06/12 03:43:12;;;;;;;3.05;2.75;;;;;;;24.14;62.17;98281.47;2070994;28;20053;-50
2023/06/12 03:44:13;;;;;;;2.50;2.30;;;;;;;24.15;62.18;98276.88;2072536;28;20041;-54
2023/06/12 03:45:14;;;;;;;4.97;2.92;;;;;;;24.14;62.36;98280.66;2073176;28;20051;-53
2023/06/12 03:46:15;;;;;;;2.67;2.33;;;;;;;24.14;62.52;98276.06;2071649;28;20058;-53
2023/06/12 03:47:17;;;;;;;2.08;1.88;;;;;;;24.15;62.23;98277.69;2074111;28;20057;-51
2023/06/12 03:48:19;;;;;;;3.05;2.75;;;;;;;24.14;62.44;98286.06;2072899;28;20136;-49
2023/06/12 03:49:21;;;;;;;2.67;2.35;;;;;;;24.13;62.31;98285.25;2069692;28;20041;-50
2023/06/12 03:50:23;;;;;;;2.42;2.05;;;;;;;24.15;62.62;98283.09;2071342;28;20049;-50
2023/06/12 03:51:26;;;;;;;2.45;2.25;;;;;;;24.15;62.58;98285.00;2073148;28;20053;-53
2023/06/12 03:52:28;;;;;;;2.90;2.60;;;;;;;24.14;62.52;98283.38;2070464;28;20052;-50
2023/06/12 03:53:29;;;;;;;3.40;2.35;;;;;;;24.15;62.31;98290.41;2071682;28;20136;-50
2023/06/12 03:54:32;;;;;;;3.35;2.40;;;;;;;24.14;62.53;98292.31;2070672;28;20080;-54
2023/06/12 03:55:34;;;;;;;3.08;2.75;;;;;;;24.13;62.60;98298.00;2071920;28;20061;-54
2023/06/12 03:56:36;;;;;;;2.53;2.35;;;;;;;24.14;62.37;98299.63;2071834;28;20103;-53
2023/06/12 03:57:37;;;;;;;2.13;2.00;;;;;;;24.14;62.29;98292.31;2073035;28;20080;-51
2023/06/12 03:58:39;;;;;;;2.60;2.10;;;;;;;24.13;62.51;98296.09;2070445;28;20046;-50
2023/06/12 03:59:39;;;;;;;3.95;2.60;;;;;;;24.14;62.22;98302.34;2067849;28;20073;-54
2023/06/12 04:00:41;;;;;;;2.17;1.98;;;;;;;24.16;62.27;98300.19;2074695;28;20061;-53
2023/06/12 04:01:42;;;;;;;2.78;2.25;;;;;;;24.16;62.35;98301.03;2073777;28;20067;-53
2023/06/12 04:02:44;;;;;;;2.95;2.28;;;;;;;24.14;62.40;98303.16;2068482;28;20496;-50
2023/06/12 04:03:45;;;;;;;3.30;2.38;;;;;;;24.14;62.53;98297.72;2071577;28;20061;-53
2023/06/12 04:04:47;;;;;;;2.42;2.13;;;;;;;24.14;62.34;98291.50;2072386;28;20505;-49
2023/06/12 04:05:48;;;;;;;3.10;2.53;;;;;;;24.12;62.34;98299.03;2073218;28;21936;-54
2023/06/12 04:06:52;;;;;;;2.55;2.35;;;;;;;24.13;62.79;98298.00;2072032;28;20049;-54
2023/06/12 04:07:54;;;;;;;2.38;2.17;;;;;;;24.12;62.35;98291.72;2071030;28;20083;-53
2023/06/12 04:08:55;;;;;;;3.10;2.25;;;;;;;24.12;62.25;98296.34;2071947;28;20484;-51
2023/06/12 04:09:57;;;;;;;2.40;2.20;;;;;;;24.11;62.53;98292.81;2072025;28;20057;-51
2023/06/12 04:11:00;;;;;;;2.72;2.50;;;;;;;24.13;62.49;98296.09;2071340;28;20045;-54
2023/06/12 04:12:02;;;;;;;2.50;2.00;;;;;;;24.12;62.26;98294.44;2071996;28;20065;-52
2023/06/12 04:13:03;;;;;;;2.20;2.00;;;;;;;24.13;62.10;98296.09;2071384;28;20553;-52
2023/06/12 04:14:04;;;;;;;3.33;2.78;;;;;;;24.12;62.07;98294.44;2072149;28;20572;-53
2023/06/12 04:15:06;;;;;;;2.72;2.53;;;;;;;24.12;62.31;98301.75;2073568;28;20056;-50
2023/06/12 04:16:10;;;;;;;2.67;2.20;;;;;;;24.11;62.48;98300.94;2069033;28;20053;-53
2023/06/12 04:17:10;;;;;;;2.42;2.25;;;;;;;24.12;62.42;98299.84;2071149;28;22134;-51
2023/06/12 04:18:14;;;;;;;1.98;1.80;;;;;;;24.12;62.36;98299.84;2072889;28;20053;-54
2023/06/12 04:19:16;;;;;;;2.63;2.13;;;;;;;24.11;62.42;98300.13;2070153;28;20283;-51
2023/06/12 04:20:18;;;;;;;2.90;2.10;;;;;;;24.12;62.51;98299.03;2074203;28;20061;-49
2023/06/12 04:21:21;;;;;;;2.38;2.03;;;;;;;24.11;62.19;98298.22;2071781;28;20057;-52
2023/06/12 04:22:25;;;;;;;2.78;2.25;;;;;;;24.12;62.43;98299.03;2072395;28;20435;-53
2023/06/12 04:23:29;;;;;;;2.28;2.08;;;;;;;24.12;62.66;98305.28;2070595;28;20369;-52
2023/06/12 04:24:32;;;;;;;2.97;2.38;;;;;;;24.10;62.14;98299.31;2072518;28;20042;-52
2023/06/12 04:25:34;;;;;;;2.58;2.22;;;;;;;24.08;62.47;98301.44;2071773;28;20498;-50
2023/06/12 04:26:37;;;;;;;2.80;2.13;;;;;;;24.07;62.84;98295.19;2067454;28;20084;-56
2023/06/12 04:27:40;;;;;;;2.53;2.33;;;;;;;24.09;62.90;98303.06;2068796;28;20069;-54
2023/06/12 04:28:42;;;;;;;2.83;2.28;;;;;;;24.08;62.55;98298.72;2072622;28;20080;-51
2023/06/12 04:29:43;;;;;;;2.33;1.98;;;;;;;24.09;62.58;98300.34;2071221;28;20115;-51
2023/06/12 04:30:45;;;;;;;2.58;2.38;;;;;;;24.08;62.92;98296.00;2069699;28;20049;-49
2023/06/12 04:31:46;;;;;;;2.30;2.10;;;;;;;24.11;62.28;98297.41;2071449;28;20057;-53
2023/06/12 04:32:48;;;;;;;1.60;1.35;;;;;;;24.10;62.32;98296.59;2070778;28;20077;-52
2023/06/12 04:33:51;;;;;;;2.97;1.83;;;;;;;24.11;62.53;98292.81;2067142;28;20235;-51
2023/06/12 04:34:54;;;;;;;2.65;2.15;;;;;;;24.11;62.64;98297.41;2069240;28;20444;-54
2023/06/12 04:35:56;;;;;;;2.58;2.38;;;;;;;24.10;62.41;98293.88;2067902;28;20056;-55
2023/06/12 04:36:57;;;;;;;2.60;2.40;;;;;;;24.11;62.50;98292.81;2068684;28;20235;-52
2023/06/12 04:38:00;;;;;;;3.03;2.55;;;;;;;24.09;62.74;98289.50;2068905;28;20049;-51
2023/06/12 04:39:02;;;;;;;3.13;2.13;;;;;;;24.09;62.76;98289.50;2070395;28;20049;-53
2023/06/12 04:40:04;;;;;;;2.25;2.05;;;;;;;24.11;62.67;98287.38;2068175;28;20068;-52
2023/06/12 04:41:06;;;;;;;2.72;2.53;;;;;;;24.08;62.53;98287.88;2073148;28;20402;-51
2023/06/12 04:42:08;;;;;;;2.20;2.00;;;;;;;24.11;62.45;98281.97;2069798;28;20199;-53
2023/06/12 04:43:10;;;;;;;2.67;2.45;;;;;;;24.10;62.49;98293.88;2068904;28;20049;-50
2023/06/12 04:44:11;;;;;;;2.53;2.13;;;;;;;24.10;62.57;98293.88;2070196;28;20057;-52
2023/06/12 04:45:13;;;;;;;2.95;2.25;;;;;;;24.08;62.44;98288.69;2069235;28;20525;-52
2023/06/12 04:46:14;;;;;;;2.70;1.90;;;;;;;24.09;62.53;98293.03;2072993;28;20503;-52
2023/06/12 04:47:16;;;;;;;2.20;2.00;;;;;;;24.07;62.78;98295.19;2068807;28;21547;-51
2023/06/12 04:48:18;;;;;;;2.97;2.65;;;;;;;24.11;62.61;98295.50;2071014;28;20144;-51
2023/06/12 04:49:19;;;;;;;2.53;1.98;;;;;;;24.10;62.48;98296.59;2071168;28;20049;-55
2023/06/12 04:50:20;;;;;;;2.45;2.15;;;;;;;24.08;62.63;98291.41;2069162;28;20140;-51
2023/06/12 04:51:23;;;;;;;2.42;2.22;;;;;;;24.09;62.45;98290.34;2067609;28;20512;-53
2023/06/12 04:52:24;;;;;;;2.03;1.92;;;;;;;24.08;62.33;98296.00;2071114;28;20061;-51
2023/06/12 04:53:29;;;;;;;2.38;2.13;;;;;;;24.10;62.29;98296.59;2070633;28;20466;-50
2023/06/12 04:54:35;;;;;;;2.00;1.77;;;;;;;24.08;62.53;98287.88;2071322;28;20053;-51
2023/06/12 04:55:37;;;;;;;2.45;2.15;;;;;;;24.07;62.39;98288.94;2068814;28;20081;-55